createdAt,value
2017-12-29T00:00:42.896Z,0.77
2017-12-29T00:01:52.871Z,0.76
2017-12-29T00:03:02.847Z,0.77
2017-12-29T00:04:12.560Z,0.73
2017-12-29T00:05:22.545Z,0.71
2017-12-29T00:06:32.528Z,0.71
2017-12-29T00:07:42.245Z,0.67
2017-12-29T00:08:52.224Z,0.7
2017-12-29T00:10:01.943Z,0.59
2017-12-29T00:11:11.922Z,0.63
2017-12-29T00:12:21.945Z,0.52
2017-12-29T00:13:31.671Z,0.61
2017-12-29T00:14:41.382Z,0.58
2017-12-29T00:15:51.364Z,0.59
2017-12-29T00:17:01.077Z,0.64
2017-12-29T00:18:10.264Z,0.63
2017-12-29T00:19:20.241Z,0.61
2017-12-29T00:20:30.221Z,0.58
2017-12-29T00:21:39.731Z,0.67
2017-12-29T00:22:49.707Z,0.63
2017-12-29T00:23:59.426Z,0.58
2017-12-29T00:25:08.612Z,0.64
2017-12-29T00:26:18.320Z,0.61
2017-12-29T00:27:27.767Z,0.56
2017-12-29T00:28:37.758Z,0.67
2017-12-29T00:29:47.745Z,0.63
2017-12-29T00:30:57.194Z,0.58
2017-12-29T00:32:06.912Z,0.51
2017-12-29T00:33:16.889Z,0.47
2017-12-29T00:34:26.873Z,0.47
2017-12-29T00:35:36.609Z,0.47
2017-12-29T00:36:46.326Z,0.52
2017-12-29T00:37:56.310Z,0.45
2017-12-29T00:39:06.288Z,0.45
2017-12-29T00:40:16.271Z,0.44
2017-12-29T00:41:26.244Z,0.49
2017-12-29T00:42:36.223Z,0.44
2017-12-29T00:43:45.937Z,0.44
2017-12-29T00:44:55.914Z,0.45
2017-12-29T00:46:05.893Z,0.45
2017-12-29T00:47:15.873Z,0.44
2017-12-29T00:48:25.320Z,0.29
2017-12-29T00:49:35.295Z,0.48
2017-12-29T00:50:45.271Z,0.39
2017-12-29T00:51:54.988Z,0.42
2017-12-29T00:53:04.967Z,0.39
2017-12-29T00:54:14.948Z,0.42
2017-12-29T00:55:24.661Z,0.4
2017-12-29T00:56:34.641Z,0.42
2017-12-29T00:57:44.627Z,0.47
2017-12-29T00:58:54.605Z,0.37
2017-12-29T01:00:04.316Z,0.33
2017-12-29T01:01:14.030Z,0.45
2017-12-29T01:02:24.006Z,0.44
2017-12-29T01:03:33.989Z,0.36
2017-12-29T01:04:43.966Z,0.31
2017-12-29T01:05:53.680Z,0.4
2017-12-29T01:07:03.660Z,0.31
2017-12-29T01:08:13.640Z,0.39
2017-12-29T01:09:23.356Z,0.45
2017-12-29T01:10:33.345Z,0.34
2017-12-29T01:11:43.058Z,0.42
2017-12-29T01:12:53.044Z,0.44
2017-12-29T01:14:02.494Z,0.39
2017-12-29T01:15:11.949Z,0.45
2017-12-29T01:16:21.925Z,0.39
2017-12-29T01:17:31.902Z,0.33
2017-12-29T01:18:41.891Z,0.36
2017-12-29T01:19:51.875Z,0.31
2017-12-29T01:21:01.855Z,0.37
2017-12-29T01:22:11.834Z,0.34
2017-12-29T01:23:21.826Z,0.34
2017-12-29T01:24:31.803Z,0.34
2017-12-29T01:25:41.783Z,0.36
2017-12-29T01:26:51.240Z,0.34
2017-12-29T01:28:01.215Z,0.36
2017-12-29T01:29:11.195Z,0.3
2017-12-29T01:30:21.179Z,0.29
2017-12-29T01:31:30.367Z,0.27
2017-12-29T01:32:40.074Z,0.19
2017-12-29T01:33:49.793Z,0.18
2017-12-29T01:34:59.772Z,0.11
2017-12-29T01:36:09.758Z,0.19
2017-12-29T01:37:19.738Z,0.11
2017-12-29T01:38:29.447Z,0.19
2017-12-29T01:39:39.481Z,0.2
2017-12-29T01:40:49.196Z,0.24
2017-12-29T01:41:58.909Z,0.19
2017-12-29T01:43:08.629Z,0.15
2017-12-29T01:44:18.604Z,0.26
2017-12-29T01:45:28.323Z,0.24
2017-12-29T01:46:38.302Z,0.29
2017-12-29T01:47:47.488Z,0.26
2017-12-29T01:48:57.466Z,0.29
2017-12-29T01:50:06.649Z,0.3
2017-12-29T01:51:16.658Z,0.31
2017-12-29T01:52:26.105Z,0.29
2017-12-29T01:53:36.394Z,0.34
2017-12-29T01:54:46.369Z,0.29
2017-12-29T01:55:56.344Z,0.33
2017-12-29T01:57:06.055Z,0.3
2017-12-29T01:58:16.035Z,0.34
2017-12-29T01:59:26.015Z,0.37
2017-12-29T02:00:35.725Z,0.31
2017-12-29T02:01:45.714Z,0.34
2017-12-29T02:02:55.690Z,0.33
2017-12-29T02:04:05.404Z,0.34
2017-12-29T02:05:14.854Z,0.29
2017-12-29T02:06:24.830Z,0.44
2017-12-29T02:07:34.284Z,0.42
2017-12-29T02:08:44.264Z,0.37
2017-12-29T02:09:53.981Z,0.4
2017-12-29T02:11:03.703Z,0.37
2017-12-29T02:12:13.419Z,0.42
2017-12-29T02:13:23.403Z,0.33
2017-12-29T02:14:32.857Z,0.31
2017-12-29T02:15:42.307Z,0.44
2017-12-29T02:16:52.590Z,0.45
2017-12-29T02:18:02.567Z,0.3
2017-12-29T02:19:12.016Z,0.48
2017-12-29T02:20:21.992Z,0.39
2017-12-29T02:21:31.501Z,0.48
2017-12-29T02:22:43.479Z,0.45
2017-12-29T02:23:53.454Z,0.49
2017-12-29T02:25:03.433Z,0.47
2017-12-29T02:26:13.147Z,0.49
2017-12-29T02:27:23.124Z,0.42
2017-12-29T02:28:33.103Z,0.49
2017-12-29T02:29:43.084Z,0.44
2017-12-29T02:30:53.063Z,0.48
2017-12-29T02:32:02.780Z,0.37
2017-12-29T02:33:12.494Z,0.47
2017-12-29T02:34:22.482Z,0.47
2017-12-29T02:35:31.937Z,0.49
2017-12-29T02:36:41.924Z,0.47
2017-12-29T02:37:51.905Z,0.47
2017-12-29T02:39:01.629Z,0.49
2017-12-29T02:40:11.088Z,0.51
2017-12-29T02:41:21.078Z,0.45
2017-12-29T02:42:30.799Z,0.61
2017-12-29T02:43:40.514Z,0.64
2017-12-29T02:44:50.230Z,0.66
2017-12-29T02:46:00.208Z,0.73
2017-12-29T02:47:09.660Z,0.67
2017-12-29T02:48:19.644Z,0.78
2017-12-29T02:49:29.624Z,0.77
2017-12-29T02:50:39.599Z,0.84
2017-12-29T02:51:49.583Z,0.89
2017-12-29T02:52:59.562Z,0.92
2017-12-29T02:54:09.014Z,0.92
2017-12-29T02:55:18.992Z,0.91
2017-12-29T02:56:28.968Z,1.02
2017-12-29T02:57:38.951Z,1
2017-12-29T02:58:48.663Z,0.94
2017-12-29T02:59:58.674Z,0.95
2017-12-29T03:01:08.388Z,0.82
2017-12-29T03:02:18.362Z,0.81
2017-12-29T03:03:28.342Z,0.74
2017-12-29T03:04:37.793Z,0.7
2017-12-29T03:05:47.771Z,0.66
2017-12-29T03:06:57.487Z,0.7
2017-12-29T03:08:07.466Z,0.76
2017-12-29T03:09:18.918Z,0.59
2017-12-29T03:10:28.891Z,0.66
2017-12-29T03:11:38.875Z,0.67
2017-12-29T03:12:48.851Z,0.63
2017-12-29T03:13:58.830Z,0.63
2017-12-29T03:15:08.545Z,0.61
2017-12-29T03:16:18.569Z,0.58
2017-12-29T03:17:28.546Z,0.63
2017-12-29T03:18:38.519Z,0.51
2017-12-29T03:19:48.493Z,0.51
2017-12-29T03:20:58.472Z,0.55
2017-12-29T03:22:08.184Z,0.45
2017-12-29T03:23:18.168Z,0.52
2017-12-29T03:24:28.146Z,0.51
2017-12-29T03:25:38.125Z,0.52
2017-12-29T03:26:48.107Z,0.56
2017-12-29T03:27:57.816Z,0.63
2017-12-29T03:29:07.269Z,0.58
2017-12-29T03:30:17.263Z,0.78
2017-12-29T03:31:27.253Z,0.78
2017-12-29T03:32:36.974Z,0.86
2017-12-29T03:33:46.950Z,0.82
2017-12-29T03:34:56.926Z,0.77
2017-12-29T03:36:06.643Z,0.81
2017-12-29T03:37:16.090Z,0.78
2017-12-29T03:38:25.538Z,0.82
2017-12-29T03:39:35.251Z,0.78
2017-12-29T03:40:45.230Z,0.85
2017-12-29T03:41:55.206Z,0.85
2017-12-29T03:43:04.654Z,0.84
2017-12-29T03:44:14.366Z,0.74
2017-12-29T03:45:24.345Z,0.66
2017-12-29T03:46:34.331Z,0.82
2017-12-29T03:47:44.311Z,0.84
2017-12-29T03:48:54.285Z,0.78
2017-12-29T03:50:03.995Z,0.74
2017-12-29T03:51:13.705Z,0.66
2017-12-29T03:52:23.698Z,0.63
2017-12-29T03:53:33.674Z,0.59
2017-12-29T03:54:43.388Z,0.59
2017-12-29T03:55:53.371Z,0.56
2017-12-29T03:57:03.351Z,0.51
2017-12-29T03:58:13.067Z,0.49
2017-12-29T03:59:23.044Z,0.55
2017-12-29T04:03:25.842Z,0.48
2017-12-29T04:04:35.558Z,0.55
2017-12-29T04:05:45.531Z,0.48
2017-12-29T04:06:55.505Z,0.52
2017-12-29T04:08:05.216Z,0.55
2017-12-29T04:09:15.201Z,0.48
2017-12-29T04:10:25.176Z,0.55
2017-12-29T04:11:34.885Z,0.64
2017-12-29T04:12:44.601Z,0.68
2017-12-29T04:13:54.577Z,0.68
2017-12-29T04:15:04.552Z,0.71
2017-12-29T04:16:14.527Z,0.59
2017-12-29T04:17:24.505Z,0.66
2017-12-29T04:18:34.482Z,0.56
2017-12-29T04:19:44.196Z,0.56
2017-12-29T04:20:54.173Z,0.49
2017-12-29T04:22:03.889Z,0.4
2017-12-29T04:23:13.867Z,0.51
2017-12-29T04:24:23.891Z,0.45
2017-12-29T04:25:33.873Z,0.48
2017-12-29T04:26:43.589Z,0.37
2017-12-29T04:27:53.037Z,0.47
2017-12-29T04:29:02.748Z,0.48
2017-12-29T04:30:12.726Z,0.47
2017-12-29T04:31:22.438Z,0.49
2017-12-29T04:32:32.414Z,0.47
2017-12-29T04:33:42.390Z,0.51
2017-12-29T04:34:52.102Z,0.47
2017-12-29T04:36:01.815Z,0.47
2017-12-29T04:37:11.789Z,0.48
2017-12-29T04:38:21.769Z,0.33
2017-12-29T04:39:31.743Z,0.42
2017-12-29T04:40:41.451Z,0.36
2017-12-29T04:41:51.425Z,0.36
2017-12-29T04:43:01.143Z,0.31
2017-12-29T04:44:11.119Z,0.36
2017-12-29T04:45:21.104Z,0.29
2017-12-29T04:46:31.078Z,0.26
2017-12-29T04:47:41.055Z,0.3
2017-12-29T04:48:51.028Z,0.34
2017-12-29T04:50:00.742Z,0.26
2017-12-29T04:51:10.466Z,0.24
2017-12-29T04:52:20.442Z,0.24
2017-12-29T04:53:30.419Z,0.24
2017-12-29T04:54:40.394Z,0.2
2017-12-29T04:55:50.370Z,0.29
2017-12-29T04:57:00.356Z,0.16
2017-12-29T04:58:10.339Z,0.23
2017-12-29T04:59:20.313Z,0.24
2017-12-29T05:00:30.292Z,0.29
2017-12-29T05:01:40.265Z,0.13
2017-12-29T05:02:50.243Z,0.23
2017-12-29T05:04:00.227Z,0.29
2017-12-29T05:05:09.938Z,0.18
2017-12-29T05:06:19.919Z,0.18
2017-12-29T05:07:29.901Z,0.19
2017-12-29T05:08:39.611Z,0.19
2017-12-29T05:09:49.062Z,0.16
2017-12-29T05:10:59.038Z,0.18
2017-12-29T05:12:08.488Z,0.24
2017-12-29T05:13:18.200Z,0.16
2017-12-29T05:14:28.183Z,0.13
2017-12-29T05:15:37.892Z,0.16
2017-12-29T05:16:47.606Z,0.12
2017-12-29T05:17:57.323Z,0.27
2017-12-29T05:19:07.301Z,0.27
2017-12-29T05:20:17.366Z,0.26
2017-12-29T05:21:27.340Z,0.24
2017-12-29T05:22:36.785Z,0.26
2017-12-29T05:23:46.499Z,0.24
2017-12-29T05:24:56.211Z,0.26
2017-12-29T05:26:05.657Z,0.24
2017-12-29T05:27:15.632Z,0.2
2017-12-29T05:28:25.606Z,0.27
2017-12-29T05:29:35.581Z,0.33
2017-12-29T05:30:45.295Z,0.26
2017-12-29T05:31:55.274Z,0.24
2017-12-29T05:33:04.728Z,0.33
2017-12-29T05:34:14.438Z,0.27
2017-12-29T05:35:24.419Z,0.3
2017-12-29T05:36:34.396Z,0.27
2017-12-29T05:37:44.118Z,0.23
2017-12-29T05:38:53.833Z,0.24
2017-12-29T05:40:03.543Z,0.29
2017-12-29T05:41:12.990Z,0.2
2017-12-29T05:42:23.003Z,0.29
2017-12-29T05:43:32.976Z,0.27
2017-12-29T05:44:42.686Z,0.27
2017-12-29T05:45:52.663Z,0.24
2017-12-29T05:47:02.639Z,0.27
2017-12-29T05:48:12.619Z,0.12
2017-12-29T05:49:22.601Z,0.24
2017-12-29T05:50:32.585Z,0.13
2017-12-29T05:51:42.567Z,0.23
2017-12-29T05:52:52.548Z,0.23
2017-12-29T05:54:02.530Z,0.33
2017-12-29T05:55:12.506Z,0.33
2017-12-29T05:56:22.484Z,0.29
2017-12-29T05:57:32.198Z,0.31
2017-12-29T05:58:41.907Z,0.24
2017-12-29T05:59:51.617Z,0.31
2017-12-29T06:01:01.590Z,0.29
2017-12-29T06:02:11.304Z,0.26
2017-12-29T06:03:21.290Z,0.31
2017-12-29T06:04:31.265Z,0.33
2017-12-29T06:05:40.976Z,0.36
2017-12-29T06:06:51.014Z,0.44
2017-12-29T06:08:00.727Z,0.3
2017-12-29T06:09:10.181Z,0.47
2017-12-29T06:10:19.373Z,0.45
2017-12-29T06:11:29.360Z,0.4
2017-12-29T06:12:39.069Z,0.48
2017-12-29T06:13:48.783Z,0.52
2017-12-29T06:14:58.780Z,0.47
2017-12-29T06:16:08.497Z,0.49
2017-12-29T06:17:18.475Z,0.51
2017-12-29T06:18:28.448Z,0.51
2017-12-29T06:19:38.426Z,0.34
2017-12-29T06:20:48.406Z,0.55
2017-12-29T06:21:58.384Z,0.47
2017-12-29T06:23:08.361Z,0.44
2017-12-29T06:24:18.078Z,0.47
2017-12-29T06:25:28.055Z,0.42
2017-12-29T06:26:38.037Z,0.45
2017-12-29T06:27:47.485Z,0.45
2017-12-29T06:28:57.209Z,0.45
2017-12-29T06:30:06.940Z,0.42
2017-12-29T06:31:16.401Z,0.47
2017-12-29T06:32:26.411Z,0.48
2017-12-29T06:33:36.127Z,0.45
2017-12-29T06:34:46.107Z,0.52
2017-12-29T06:35:56.082Z,0.49
2017-12-29T06:37:06.059Z,0.67
2017-12-29T06:38:15.770Z,0.55
2017-12-29T06:39:25.744Z,0.61
2017-12-29T06:40:35.722Z,0.58
2017-12-29T06:41:45.697Z,0.56
2017-12-29T06:42:55.680Z,0.61
2017-12-29T06:44:05.399Z,0.61
2017-12-29T06:45:15.112Z,0.66
2017-12-29T06:46:25.095Z,0.64
2017-12-29T06:47:34.806Z,0.67
2017-12-29T06:48:44.792Z,0.66
2017-12-29T06:49:54.514Z,0.68
2017-12-29T06:51:04.491Z,0.7
2017-12-29T06:52:14.200Z,0.71
2017-12-29T06:53:24.177Z,0.7
2017-12-29T06:54:34.159Z,0.66
2017-12-29T06:55:44.138Z,0.67
2017-12-29T06:56:54.142Z,0.77
2017-12-29T06:58:04.164Z,0.67
2017-12-29T06:59:13.876Z,0.71
2017-12-29T07:00:23.859Z,0.68
2017-12-29T07:01:33.837Z,0.64
2017-12-29T07:02:43.817Z,0.55
2017-12-29T07:03:53.627Z,0.64
2017-12-29T07:05:03.346Z,0.56
2017-12-29T07:06:13.322Z,0.61
2017-12-29T07:07:23.037Z,0.59
2017-12-29T07:08:33.021Z,0.55
2017-12-29T07:09:43.006Z,0.56
2017-12-29T07:10:53.011Z,0.73
2017-12-29T07:12:02.987Z,0.64
2017-12-29T07:13:12.962Z,0.61
2017-12-29T07:14:22.939Z,0.51
2017-12-29T07:15:32.919Z,0.47
2017-12-29T07:16:42.632Z,0.45
2017-12-29T07:17:52.615Z,0.56
2017-12-29T07:19:02.331Z,0.44
2017-12-29T07:20:11.521Z,0.48
2017-12-29T07:21:21.235Z,0.49
2017-12-29T07:22:30.967Z,0.49
2017-12-29T07:23:40.960Z,0.51
2017-12-29T07:24:50.672Z,0.49
2017-12-29T07:26:00.659Z,0.47
2017-12-29T07:27:10.373Z,0.55
2017-12-29T07:28:20.350Z,0.45
2017-12-29T07:29:30.362Z,0.48
2017-12-29T07:30:40.339Z,0.47
2017-12-29T07:31:50.316Z,0.59
2017-12-29T07:33:00.297Z,0.61
2017-12-29T07:34:10.012Z,0.59
2017-12-29T07:35:19.730Z,0.56
2017-12-29T07:36:29.447Z,0.59
2017-12-29T07:37:39.427Z,0.59
2017-12-29T07:38:49.138Z,0.45
2017-12-29T07:39:59.152Z,0.47
2017-12-29T07:41:09.148Z,0.48
2017-12-29T07:42:19.138Z,0.51
2017-12-29T07:43:29.121Z,0.61
2017-12-29T07:44:39.096Z,0.67
2017-12-29T07:45:48.813Z,0.64
2017-12-29T07:46:58.523Z,0.7
2017-12-29T07:48:08.244Z,0.73
2017-12-29T07:49:18.220Z,0.76
2017-12-29T07:50:28.214Z,0.7
2017-12-29T07:51:38.187Z,0.67
2017-12-29T07:52:47.901Z,0.64
2017-12-29T07:53:57.614Z,0.7
2017-12-29T07:55:07.592Z,0.7
2017-12-29T07:56:17.040Z,0.58
2017-12-29T07:57:27.015Z,0.55
2017-12-29T07:58:36.780Z,0.64
2017-12-29T07:59:46.764Z,0.61
2017-12-29T08:00:56.746Z,0.52
2017-12-29T08:02:06.730Z,0.73
2017-12-29T08:03:16.710Z,0.64
2017-12-29T08:04:26.690Z,0.56
2017-12-29T08:05:36.667Z,0.67
2017-12-29T08:06:46.645Z,0.67
2017-12-29T08:07:56.359Z,0.73
2017-12-29T08:09:06.336Z,0.77
2017-12-29T08:10:16.048Z,0.68
2017-12-29T08:11:26.024Z,0.78
2017-12-29T08:12:35.738Z,0.84
2017-12-29T08:13:45.717Z,0.82
2017-12-29T08:14:55.692Z,0.73
2017-12-29T08:16:05.674Z,0.73
2017-12-29T08:17:15.652Z,0.74
2017-12-29T08:18:25.628Z,0.81
2017-12-29T08:19:35.607Z,0.7
2017-12-29T08:20:45.632Z,0.73
2017-12-29T08:21:55.080Z,0.59
2017-12-29T08:23:05.060Z,0.66
2017-12-29T08:24:13.981Z,0.64
2017-12-29T08:25:23.961Z,0.59
2017-12-29T08:26:33.947Z,0.61
2017-12-29T08:27:43.926Z,0.55
2017-12-29T08:28:53.901Z,0.45
2017-12-29T08:30:03.889Z,0.48
2017-12-29T08:31:13.339Z,0.47
2017-12-29T08:32:23.314Z,0.51
2017-12-29T08:33:33.028Z,0.48
2017-12-29T08:34:42.781Z,0.47
2017-12-29T08:35:52.762Z,0.49
2017-12-29T08:37:02.748Z,0.4
2017-12-29T08:38:12.745Z,0.47
2017-12-29T08:39:22.733Z,0.45
2017-12-29T08:40:32.449Z,0.42
2017-12-29T08:41:42.168Z,0.44
2017-12-29T08:42:51.933Z,0.37
2017-12-29T08:44:01.916Z,0.39
2017-12-29T08:45:11.366Z,0.44
2017-12-29T08:46:21.349Z,0.42
2017-12-29T08:47:31.331Z,0.36
2017-12-29T08:48:41.312Z,0.37
2017-12-29T08:49:51.296Z,0.37
2017-12-29T08:51:01.008Z,0.34
2017-12-29T08:52:10.989Z,0.34
2017-12-29T08:53:20.971Z,0.4
2017-12-29T08:54:31.000Z,0.34
2017-12-29T08:55:40.980Z,0.39
2017-12-29T08:56:50.434Z,0.42
2017-12-29T08:58:00.422Z,0.3
2017-12-29T08:59:09.880Z,0.45
2017-12-29T09:00:19.862Z,0.4
2017-12-29T09:01:29.852Z,0.4
2017-12-29T09:02:39.574Z,0.48
2017-12-29T09:03:49.558Z,0.36
2017-12-29T09:04:59.543Z,0.37
2017-12-29T09:06:09.523Z,0.42
2017-12-29T09:07:19.235Z,0.36
2017-12-29T09:08:29.227Z,0.31
2017-12-29T09:09:38.684Z,0.39
2017-12-29T09:10:48.664Z,0.48
2017-12-29T09:11:58.858Z,0.45
2017-12-29T09:13:08.367Z,0.48
2017-12-29T09:14:18.344Z,0.37
2017-12-29T09:15:28.075Z,0.45
2017-12-29T09:16:38.055Z,0.45
2017-12-29T09:17:48.033Z,0.45
2017-12-29T09:18:58.066Z,0.44
2017-12-29T09:20:07.512Z,0.36
2017-12-29T09:21:16.966Z,0.49
2017-12-29T09:22:26.948Z,0.33
2017-12-29T09:23:38.932Z,0.29
2017-12-29T09:24:48.910Z,0.47
2017-12-29T09:25:58.890Z,0.49
2017-12-29T09:27:08.867Z,0.4
2017-12-29T09:28:18.850Z,0.45
2017-12-29T09:29:28.563Z,0.48
2017-12-29T09:30:38.544Z,0.44
2017-12-29T09:31:48.522Z,0.45
2017-12-29T09:32:58.232Z,0.45
2017-12-29T09:34:08.214Z,0.47
2017-12-29T09:35:17.962Z,0.47
2017-12-29T09:36:27.678Z,0.48
2017-12-29T09:37:37.667Z,0.4
2017-12-29T09:38:47.649Z,0.47
2017-12-29T09:39:57.624Z,0.51
2017-12-29T09:41:07.344Z,0.49
2017-12-29T09:42:17.121Z,0.52
2017-12-29T09:43:26.832Z,0.49
2017-12-29T09:44:36.545Z,0.51
2017-12-29T09:45:46.258Z,0.51
2017-12-29T09:46:56.243Z,0.51
2017-12-29T09:48:05.962Z,0.45
2017-12-29T09:49:15.938Z,0.47
2017-12-29T09:50:25.920Z,0.47
2017-12-29T09:51:35.907Z,0.51
2017-12-29T09:52:45.884Z,0.56
2017-12-29T09:53:55.604Z,0.56
2017-12-29T09:55:05.323Z,0.56
2017-12-29T09:56:15.299Z,0.55
2017-12-29T09:57:25.277Z,0.66
2017-12-29T09:58:34.987Z,0.55
2017-12-29T09:59:44.965Z,0.66
2017-12-29T10:00:54.943Z,0.52
2017-12-29T10:02:04.921Z,0.64
2017-12-29T10:03:14.900Z,0.64
2017-12-29T10:04:24.885Z,0.63
2017-12-29T10:05:34.866Z,0.61
2017-12-29T10:06:44.850Z,0.58
2017-12-29T10:07:54.568Z,0.58
2017-12-29T10:09:04.020Z,0.68
2017-12-29T10:10:13.997Z,0.71
2017-12-29T10:11:23.725Z,0.68
2017-12-29T10:12:33.440Z,0.82
2017-12-29T10:13:43.416Z,0.88
2017-12-29T10:14:53.400Z,0.85
2017-12-29T10:16:03.150Z,0.86
2017-12-29T10:17:13.138Z,0.85
2017-12-29T10:18:22.851Z,1
2017-12-29T10:19:32.304Z,1.02
2017-12-29T10:20:42.021Z,1.09
2017-12-29T10:21:51.737Z,1.06
2017-12-29T10:23:01.452Z,1.13
2017-12-29T10:24:11.171Z,1.09
2017-12-29T10:25:20.623Z,1.09
2017-12-29T10:26:29.807Z,1.18
2017-12-29T10:27:39.519Z,1.16
2017-12-29T10:28:49.501Z,1.12
2017-12-29T10:29:59.485Z,1.18
2017-12-29T10:31:09.472Z,1.27
2017-12-29T10:32:19.457Z,1.27
2017-12-29T10:33:29.170Z,1.28
2017-12-29T10:34:38.882Z,1.3
2017-12-29T10:35:48.876Z,1.25
2017-12-29T10:36:58.327Z,1.25
2017-12-29T10:38:08.055Z,1.27
2017-12-29T10:39:17.503Z,1.22
2017-12-29T10:40:27.228Z,1.32
2017-12-29T10:41:36.941Z,1.24
2017-12-29T10:42:46.916Z,1.31
2017-12-29T10:43:56.365Z,1.36
2017-12-29T10:45:06.342Z,1.31
2017-12-29T10:46:16.321Z,1.4
2017-12-29T10:47:26.035Z,1.36
2017-12-29T10:48:35.794Z,1.32
2017-12-29T10:49:45.253Z,1.4
2017-12-29T10:50:54.972Z,1.43
2017-12-29T10:52:04.952Z,1.4
2017-12-29T10:53:14.675Z,1.38
2017-12-29T10:54:24.659Z,1.4
2017-12-29T10:55:34.652Z,1.42
2017-12-29T10:56:44.629Z,1.43
2017-12-29T10:57:54.605Z,1.46
2017-12-29T10:59:04.593Z,1.34
2017-12-29T11:00:14.307Z,1.42
2017-12-29T11:01:24.281Z,1.49
2017-12-29T11:02:33.996Z,1.52
2017-12-29T11:03:43.987Z,1.57
2017-12-29T11:04:53.965Z,1.64
2017-12-29T11:06:03.945Z,1.56
2017-12-29T11:07:13.924Z,1.57
2017-12-29T11:08:23.908Z,1.63
2017-12-29T11:09:33.885Z,1.6
2017-12-29T11:10:43.606Z,1.57
2017-12-29T11:11:53.318Z,1.52
2017-12-29T11:13:03.301Z,1.53
2017-12-29T11:14:13.280Z,1.48
2017-12-29T11:15:22.998Z,1.49
2017-12-29T11:16:32.742Z,1.49
2017-12-29T11:17:42.742Z,1.49
2017-12-29T11:18:52.467Z,1.53
2017-12-29T11:20:01.968Z,1.49
2017-12-29T11:21:11.951Z,1.52
2017-12-29T11:22:21.930Z,1.48
2017-12-29T11:23:31.768Z,1.42
2017-12-29T11:24:41.784Z,1.48
2017-12-29T11:25:51.500Z,1.45
2017-12-29T11:27:00.948Z,1.43
2017-12-29T11:28:10.697Z,1.42
2017-12-29T11:29:20.716Z,1.42
2017-12-29T11:30:29.901Z,1.45
2017-12-29T11:31:39.681Z,1.42
2017-12-29T11:32:49.660Z,1.34
2017-12-29T11:33:59.668Z,1.32
2017-12-29T11:35:09.436Z,1.3
2017-12-29T11:36:19.415Z,1.39
2017-12-29T11:37:29.132Z,1.34
2017-12-29T11:38:39.105Z,1.31
2017-12-29T11:39:49.106Z,1.4
2017-12-29T11:40:59.146Z,1.36
2017-12-29T11:42:09.126Z,1.39
2017-12-29T11:43:19.103Z,1.38
2017-12-29T11:44:28.814Z,1.42
2017-12-29T11:45:38.800Z,1.42
2017-12-29T11:46:48.513Z,1.48
2017-12-29T11:47:58.222Z,1.49
2017-12-29T11:49:08.198Z,1.49
2017-12-29T11:50:18.189Z,1.57
2017-12-29T11:51:28.166Z,1.6
2017-12-29T11:52:37.882Z,1.64
2017-12-29T11:53:47.600Z,1.74
2017-12-29T11:54:57.593Z,1.71
2017-12-29T11:56:07.374Z,1.7
2017-12-29T11:57:16.558Z,1.88
2017-12-29T11:58:26.535Z,2.07
2017-12-29T11:59:36.512Z,2.36
2017-12-29T12:00:46.225Z,2.58
2017-12-29T12:01:55.935Z,2.76
2017-12-29T12:03:05.650Z,2.73
2017-12-29T12:04:15.098Z,2.65
2017-12-29T12:05:25.077Z,2.68
2017-12-29T12:06:34.811Z,2.62
2017-12-29T12:07:44.529Z,2.65
2017-12-29T12:08:54.249Z,2.5
2017-12-29T12:10:04.227Z,2.59
2017-12-29T12:11:14.216Z,2.51
2017-12-29T12:12:24.197Z,2.4
2017-12-29T12:13:34.183Z,2.33
2017-12-29T12:14:44.222Z,2.23
2017-12-29T12:15:54.200Z,2.22
2017-12-29T12:17:03.649Z,2.36
2017-12-29T12:18:13.638Z,2.43
2017-12-29T12:19:23.351Z,2.52
2017-12-29T12:20:32.802Z,2.43
2017-12-29T12:21:42.780Z,2.34
2017-12-29T12:22:52.765Z,2.34
2017-12-29T12:24:02.742Z,2.22
2017-12-29T12:25:12.723Z,2.07
2017-12-29T12:26:22.703Z,2.07
2017-12-29T12:27:32.421Z,2.03
2017-12-29T12:28:42.133Z,2
2017-12-29T12:29:51.908Z,1.84
2017-12-29T12:31:01.886Z,1.7
2017-12-29T12:32:11.916Z,1.57
2017-12-29T12:33:21.106Z,1.45
2017-12-29T12:34:31.086Z,1.24
2017-12-29T12:35:42.806Z,1.22
2017-12-29T12:36:52.520Z,1.03
2017-12-29T12:38:01.971Z,0.88
2017-12-29T12:39:11.958Z,0.76
2017-12-29T12:40:21.937Z,0.67
2017-12-29T12:41:31.917Z,0.59
2017-12-29T12:42:41.372Z,0.47
2017-12-29T12:43:51.354Z,0.48
2017-12-29T12:45:01.339Z,0.34
2017-12-29T12:46:11.313Z,0.34
2017-12-29T12:47:21.321Z,0.33
2017-12-29T12:48:31.305Z,0.13
2017-12-29T12:49:41.026Z,0.13
2017-12-29T12:50:50.737Z,0.08
2017-12-29T12:52:00.720Z,0.06
2017-12-29T12:53:12.706Z,-0.03
2017-12-29T12:54:22.686Z,0.11
2017-12-29T12:55:32.668Z,0.08
2017-12-29T12:56:42.644Z,0.01
2017-12-29T12:57:52.628Z,-0.06
2017-12-29T12:59:02.609Z,-0.09
2017-12-29T13:00:12.363Z,-0.09
2017-12-29T13:01:22.085Z,-0.12
2017-12-29T13:02:31.535Z,-0.06
2017-12-29T13:03:41.514Z,-0.07
2017-12-29T13:04:51.275Z,-0.1
2017-12-29T13:06:00.459Z,-0.06
2017-12-29T13:07:10.437Z,-0.1
2017-12-29T13:08:20.415Z,-0.18
2017-12-29T13:09:30.125Z,-0.27
2017-12-29T13:10:39.837Z,-0.2
2017-12-29T13:11:49.883Z,-0.33
2017-12-29T13:12:59.592Z,-0.33
2017-12-29T13:14:09.313Z,-0.39
2017-12-29T13:15:19.025Z,-0.39
2017-12-29T13:16:28.476Z,-0.39
2017-12-29T13:17:38.456Z,-0.51
2017-12-29T13:18:48.433Z,-0.42
2017-12-29T13:19:57.613Z,-0.53
2017-12-29T13:21:07.329Z,-0.46
2017-12-29T13:22:17.321Z,-0.48
2017-12-29T13:23:27.046Z,-0.53
2017-12-29T13:24:37.026Z,-0.56
2017-12-29T13:25:46.738Z,-0.57
2017-12-29T13:26:56.451Z,-0.6
2017-12-29T13:28:06.168Z,-0.64
2017-12-29T13:29:15.881Z,-0.72
2017-12-29T13:30:25.637Z,-0.77
2017-12-29T13:31:35.611Z,-0.8
2017-12-29T13:32:45.628Z,-0.77
2017-12-29T13:33:55.337Z,-0.75
2017-12-29T13:35:05.051Z,-0.78
2017-12-29T13:36:15.026Z,-0.74
2017-12-29T13:37:25.009Z,-0.82
2017-12-29T13:38:34.984Z,-0.93
2017-12-29T13:39:44.697Z,-0.96
2017-12-29T13:40:54.408Z,-0.97
2017-12-29T13:42:04.386Z,-1
2017-12-29T13:43:14.097Z,-0.94
2017-12-29T13:44:24.069Z,-1.03
2017-12-29T13:45:34.043Z,-1.06
2017-12-29T13:46:43.754Z,-1.04
2017-12-29T13:47:53.466Z,-1.11
2017-12-29T13:49:03.441Z,-1.17
2017-12-29T13:50:13.151Z,-1.19
2017-12-29T13:51:23.125Z,-1.19
2017-12-29T13:52:32.837Z,-1.24
2017-12-29T13:53:42.614Z,-1.22
2017-12-29T13:54:52.595Z,-1.19
2017-12-29T13:56:02.575Z,-1.22
2017-12-29T13:57:12.283Z,-1.24
2017-12-29T13:58:22.258Z,-1.21
2017-12-29T13:59:31.967Z,-1.35
2017-12-29T14:00:41.948Z,-1.29
2017-12-29T14:01:51.659Z,-1.29
2017-12-29T14:03:01.376Z,-1.32
2017-12-29T14:04:11.086Z,-1.36
2017-12-29T14:05:20.843Z,-1.38
2017-12-29T14:06:30.816Z,-1.39
2017-12-29T14:07:40.793Z,-1.45
2017-12-29T14:08:50.501Z,-1.38
2017-12-29T14:10:00.473Z,-1.42
2017-12-29T14:11:10.446Z,-1.39
2017-12-29T14:12:20.422Z,-1.42
2017-12-29T14:13:30.396Z,-1.51
2017-12-29T14:14:40.367Z,-1.56
2017-12-29T14:15:50.080Z,-1.53
2017-12-29T14:17:00.058Z,-1.54
2017-12-29T14:18:10.040Z,-1.56
2017-12-29T14:19:20.020Z,-1.57
2017-12-29T14:20:29.466Z,-1.58
2017-12-29T14:21:39.175Z,-1.5
2017-12-29T14:22:49.148Z,-1.54
2017-12-29T14:23:58.857Z,-1.5
2017-12-29T14:25:08.834Z,-1.48
2017-12-29T14:26:18.806Z,-1.51
2017-12-29T14:27:28.788Z,-1.48
2017-12-29T14:28:38.759Z,-1.48
2017-12-29T14:29:48.730Z,-1.53
2017-12-29T14:30:58.702Z,-1.48
2017-12-29T14:32:08.423Z,-1.46
2017-12-29T14:33:18.140Z,-1.45
2017-12-29T14:34:27.855Z,-1.43
2017-12-29T14:35:37.834Z,-1.42
2017-12-29T14:36:47.543Z,-1.4
2017-12-29T14:37:57.516Z,-1.42
2017-12-29T14:39:07.220Z,-1.42
2017-12-29T14:40:17.196Z,-1.46
2017-12-29T14:41:26.910Z,-1.4
2017-12-29T14:42:36.880Z,-1.43
2017-12-29T14:43:46.063Z,-1.48
2017-12-29T14:44:55.772Z,-1.4
2017-12-29T14:46:05.747Z,-1.46
2017-12-29T14:47:15.720Z,-1.43
2017-12-29T14:48:25.696Z,-1.54
2017-12-29T14:49:35.399Z,-1.43
2017-12-29T14:50:45.372Z,-1.43
2017-12-29T14:51:55.079Z,-1.46
2017-12-29T14:53:05.058Z,-1.51
2017-12-29T14:54:15.029Z,-1.5
2017-12-29T14:55:24.739Z,-1.51
2017-12-29T14:56:34.713Z,-1.53
2017-12-29T14:57:43.892Z,-1.68
2017-12-29T14:58:53.864Z,-1.69
2017-12-29T15:00:03.836Z,-1.66
2017-12-29T15:01:13.816Z,-1.69
2017-12-29T15:02:23.787Z,-1.71
2017-12-29T15:03:33.237Z,-1.79
2017-12-29T15:04:43.213Z,-1.76
2017-12-29T15:05:53.228Z,-1.81
2017-12-29T15:07:03.204Z,-1.97
2017-12-29T15:08:12.924Z,-2.05
2017-12-29T15:09:22.897Z,-2
2017-12-29T15:10:32.603Z,-2.13
2017-12-29T15:11:42.314Z,-2.13
2017-12-29T15:12:52.284Z,-2.22
2017-12-29T15:14:02.256Z,-2.18
2017-12-29T15:15:12.276Z,-2.17
2017-12-29T15:16:21.772Z,-2.14
2017-12-29T15:17:31.751Z,-2.18
2017-12-29T15:18:41.731Z,-2.23
2017-12-29T15:19:51.708Z,-2.2
2017-12-29T15:21:01.676Z,-2.25
2017-12-29T15:22:11.386Z,-2.26
2017-12-29T15:23:21.360Z,-2.26
2017-12-29T15:24:31.067Z,-2.33
2017-12-29T15:25:41.052Z,-2.28
2017-12-29T15:26:50.761Z,-2.25
2017-12-29T15:28:00.471Z,-2.26
2017-12-29T15:29:10.446Z,-2.29
2017-12-29T15:30:20.202Z,-2.34